sensor_id;sensor_type;location;lat;lon;timestamp;temperature;humidity
48728;DHT22;34527;45.618;5.130;2023-03-01T00:01:05;1.50;99.90
48728;DHT22;34527;45.618;5.130;2023-03-01T00:03:31;1.50;99.90
48728;DHT22;34527;45.618;5.130;2023-03-01T00:05:57;1.40;99.90
48728;DHT22;34527;45.618;5.130;2023-03-01T00:08:22;1.40;99.90
48728;DHT22;34527;45.618;5.130;2023-03-01T00:10:48;1.40;99.90
48728;DHT22;34527;45.618;5.130;2023-03-01T00:13:14;1.30;99.90
48728;DHT22;34527;45.618;5.130;2023-03-01T00:15:40;1.30;99.90
48728;DHT22;34527;45.618;5.130;2023-03-01T00:18:07;1.30;99.90
48728;DHT22;34527;45.618;5.130;2023-03-01T00:20:34;1.30;99.90
48728;DHT22;34527;45.618;5.130;2023-03-01T00:22:59;1.40;99.90
48728;DHT22;34527;45.618;5.130;2023-03-01T00:25:25;1.30;99.90
48728;DHT22;34527;45.618;5.130;2023-03-01T00:27:51;1.30;99.90
48728;DHT22;34527;45.618;5.130;2023-03-01T00:30:16;1.20;99.90
48728;DHT22;34527;45.618;5.130;2023-03-01T00:32:42;1.30;99.90
48728;DHT22;34527;45.618;5.130;2023-03-01T00:35:08;1.30;99.90
48728;DHT22;34527;45.618;5.130;2023-03-01T00:37:33;1.30;99.90
48728;DHT22;34527;45.618;5.130;2023-03-01T00:39:59;1.20;99.90
48728;DHT22;34527;45.618;5.130;2023-03-01T00:42:24;1.20;99.90
48728;DHT22;34527;45.618;5.130;2023-03-01T00:44:50;1.10;99.90
48728;DHT22;34527;45.618;5.130;2023-03-01T00:47:15;1.20;99.90
48728;DHT22;34527;45.618;5.130;2023-03-01T00:49:41;1.10;99.90
48728;DHT22;34527;45.618;5.130;2023-03-01T00:52:07;1.10;99.90
48728;DHT22;34527;45.618;5.130;2023-03-01T00:54:32;1.10;99.90
48728;DHT22;34527;45.618;5.130;2023-03-01T00:56:58;1.10;99.90
48728;DHT22;34527;45.618;5.130;2023-03-01T00:59:23;1.10;99.90
48728;DHT22;34527;45.618;5.130;2023-03-01T01:01:49;1.10;99.90
48728;DHT22;34527;45.618;5.130;2023-03-01T01:04:14;1.10;99.90
48728;DHT22;34527;45.618;5.130;2023-03-01T01:06:45;1.10;99.90
48728;DHT22;34527;45.618;5.130;2023-03-01T01:09:15;1.10;99.90
48728;DHT22;34527;45.618;5.130;2023-03-01T01:11:48;1.00;99.90
48728;DHT22;34527;45.618;5.130;2023-03-01T01:14:14;1.00;99.90
48728;DHT22;34527;45.618;5.130;2023-03-01T01:16:40;1.00;99.90
48728;DHT22;34527;45.618;5.130;2023-03-01T01:19:06;1.00;99.90
48728;DHT22;34527;45.618;5.130;2023-03-01T01:21:32;0.90;99.90
48728;DHT22;34527;45.618;5.130;2023-03-01T01:23:58;0.90;99.90
48728;DHT22;34527;45.618;5.130;2023-03-01T01:26:27;0.90;99.90
48728;DHT22;34527;45.618;5.130;2023-03-01T01:28:54;0.90;99.90
48728;DHT22;34527;45.618;5.130;2023-03-01T01:31:21;0.90;99.90
48728;DHT22;34527;45.618;5.130;2023-03-01T01:33:49;0.90;99.90
48728;DHT22;34527;45.618;5.130;2023-03-01T01:36:16;0.90;99.90
48728;DHT22;34527;45.618;5.130;2023-03-01T01:38:42;0.80;99.90
48728;DHT22;34527;45.618;5.130;2023-03-01T01:41:09;0.90;99.90
48728;DHT22;34527;45.618;5.130;2023-03-01T01:43:39;0.80;99.90
48728;DHT22;34527;45.618;5.130;2023-03-01T01:46:28;0.90;99.90
48728;DHT22;34527;45.618;5.130;2023-03-01T01:49:02;0.80;99.90
48728;DHT22;34527;45.618;5.130;2023-03-01T01:51:33;0.80;99.90
48728;DHT22;34527;45.618;5.130;2023-03-01T01:54:05;0.80;99.90
48728;DHT22;34527;45.618;5.130;2023-03-01T01:56:33;0.80;99.90
48728;DHT22;34527;45.618;5.130;2023-03-01T01:58:59;0.80;99.90
48728;DHT22;34527;45.618;5.130;2023-03-01T02:01:25;0.70;99.90
48728;DHT22;34527;45.618;5.130;2023-03-01T02:03:50;0.70;99.90
48728;DHT22;34527;45.618;5.130;2023-03-01T02:06:25;0.70;99.90
48728;DHT22;34527;45.618;5.130;2023-03-01T02:08:57;0.70;99.90
48728;DHT22;34527;45.618;5.130;2023-03-01T02:11:25;0.70;99.90
48728;DHT22;34527;45.618;5.130;2023-03-01T02:13:52;0.60;99.90
48728;DHT22;34527;45.618;5.130;2023-03-01T02:16:19;0.60;99.90
48728;DHT22;34527;45.618;5.130;2023-03-01T02:18:45;0.60;99.90
48728;DHT22;34527;45.618;5.130;2023-03-01T02:23:48;0.60;99.90
48728;DHT22;34527;45.618;5.130;2023-03-01T02:26:46;0.60;99.90
48728;DHT22;34527;45.618;5.130;2023-03-01T02:29:13;0.60;99.90
48728;DHT22;34527;45.618;5.130;2023-03-01T02:31:39;0.60;99.90
48728;DHT22;34527;45.618;5.130;2023-03-01T02:34:16;0.50;99.90
48728;DHT22;34527;45.618;5.130;2023-03-01T02:36:48;0.50;99.90
48728;DHT22;34527;45.618;5.130;2023-03-01T02:39:18;0.50;99.90
48728;DHT22;34527;45.618;5.130;2023-03-01T02:41:51;0.50;99.90
48728;DHT22;34527;45.618;5.130;2023-03-01T02:44:17;0.40;99.90
48728;DHT22;34527;45.618;5.130;2023-03-01T02:46:52;0.40;99.90
48728;DHT22;34527;45.618;5.130;2023-03-01T02:49:38;0.40;99.90
48728;DHT22;34527;45.618;5.130;2023-03-01T02:55:09;0.30;99.90
48728;DHT22;34527;45.618;5.130;2023-03-01T02:57:37;0.40;99.90
48728;DHT22;34527;45.618;5.130;2023-03-01T03:00:07;0.50;99.90
48728;DHT22;34527;45.618;5.130;2023-03-01T03:02:35;0.40;99.90
48728;DHT22;34527;45.618;5.130;2023-03-01T03:05:21;0.40;99.90
48728;DHT22;34527;45.618;5.130;2023-03-01T03:07:47;0.40;99.90
48728;DHT22;34527;45.618;5.130;2023-03-01T03:10:27;0.40;99.90
48728;DHT22;34527;45.618;5.130;2023-03-01T03:12:57;0.40;99.90
48728;DHT22;34527;45.618;5.130;2023-03-01T03:15:24;0.30;99.90
48728;DHT22;34527;45.618;5.130;2023-03-01T03:17:52;0.40;99.90
48728;DHT22;34527;45.618;5.130;2023-03-01T03:20:20;0.40;99.90
48728;DHT22;34527;45.618;5.130;2023-03-01T03:22:49;0.30;99.90
48728;DHT22;34527;45.618;5.130;2023-03-01T03:25:16;0.40;99.90
48728;DHT22;34527;45.618;5.130;2023-03-01T03:27:44;0.30;99.90
48728;DHT22;34527;45.618;5.130;2023-03-01T03:30:13;0.40;99.90
48728;DHT22;34527;45.618;5.130;2023-03-01T03:32:41;0.30;99.90
48728;DHT22;34527;45.618;5.130;2023-03-01T03:35:09;0.40;99.90
48728;DHT22;34527;45.618;5.130;2023-03-01T03:37:38;0.30;99.90
48728;DHT22;34527;45.618;5.130;2023-03-01T03:40:23;0.30;99.90
48728;DHT22;34527;45.618;5.130;2023-03-01T03:42:49;0.40;99.90
48728;DHT22;34527;45.618;5.130;2023-03-01T03:45:16;0.40;99.90
48728;DHT22;34527;45.618;5.130;2023-03-01T03:47:42;0.30;99.90
48728;DHT22;34527;45.618;5.130;2023-03-01T03:50:09;0.20;99.90
48728;DHT22;34527;45.618;5.130;2023-03-01T03:52:35;0.10;99.90
48728;DHT22;34527;45.618;5.130;2023-03-01T03:55:01;0.20;99.90
48728;DHT22;34527;45.618;5.130;2023-03-01T03:57:26;0.20;99.90
48728;DHT22;34527;45.618;5.130;2023-03-01T03:59:52;0.10;99.90
48728;DHT22;34527;45.618;5.130;2023-03-01T04:02:17;0.20;99.90
48728;DHT22;34527;45.618;5.130;2023-03-01T04:04:50;0.20;99.90
48728;DHT22;34527;45.618;5.130;2023-03-01T04:07:16;0.30;99.90
48728;DHT22;34527;45.618;5.130;2023-03-01T04:09:43;0.30;99.90
48728;DHT22;34527;45.618;5.130;2023-03-01T04:12:09;0.30;99.90
48728;DHT22;34527;45.618;5.130;2023-03-01T04:14:35;0.30;99.90
48728;DHT22;34527;45.618;5.130;2023-03-01T04:17:00;0.40;99.90
48728;DHT22;34527;45.618;5.130;2023-03-01T04:19:26;0.40;99.90
48728;DHT22;34527;45.618;5.130;2023-03-01T04:21:53;0.50;99.90
48728;DHT22;34527;45.618;5.130;2023-03-01T04:24:18;0.50;99.90
48728;DHT22;34527;45.618;5.130;2023-03-01T04:26:44;0.50;99.90
48728;DHT22;34527;45.618;5.130;2023-03-01T04:29:10;0.40;99.90
48728;DHT22;34527;45.618;5.130;2023-03-01T04:31:35;0.50;99.90
48728;DHT22;34527;45.618;5.130;2023-03-01T04:34:01;0.40;99.90
48728;DHT22;34527;45.618;5.130;2023-03-01T04:36:28;0.50;99.90
48728;DHT22;34527;45.618;5.130;2023-03-01T04:38:54;0.60;99.90
48728;DHT22;34527;45.618;5.130;2023-03-01T04:41:22;0.50;99.90
48728;DHT22;34527;45.618;5.130;2023-03-01T04:43:48;0.30;99.90
48728;DHT22;34527;45.618;5.130;2023-03-01T04:46:16;0.30;99.90
48728;DHT22;34527;45.618;5.130;2023-03-01T04:48:43;0.30;99.90
48728;DHT22;34527;45.618;5.130;2023-03-01T04:51:09;0.20;99.90
48728;DHT22;34527;45.618;5.130;2023-03-01T04:53:39;0.20;99.90
48728;DHT22;34527;45.618;5.130;2023-03-01T04:56:05;0.20;99.90
48728;DHT22;34527;45.618;5.130;2023-03-01T04:58:32;0.30;99.90
48728;DHT22;34527;45.618;5.130;2023-03-01T05:00:58;0.20;99.90
48728;DHT22;34527;45.618;5.130;2023-03-01T05:03:24;0.20;99.90
48728;DHT22;34527;45.618;5.130;2023-03-01T05:05:51;0.20;99.90
48728;DHT22;34527;45.618;5.130;2023-03-01T05:08:17;0.20;99.90
48728;DHT22;34527;45.618;5.130;2023-03-01T05:10:53;0.20;99.90
48728;DHT22;34527;45.618;5.130;2023-03-01T05:13:20;0.20;99.90
48728;DHT22;34527;45.618;5.130;2023-03-01T05:15:57;0.20;99.90
48728;DHT22;34527;45.618;5.130;2023-03-01T05:18:24;0.20;99.90
48728;DHT22;34527;45.618;5.130;2023-03-01T05:20:54;0.10;99.90
48728;DHT22;34527;45.618;5.130;2023-03-01T05:23:24;0.10;99.90
48728;DHT22;34527;45.618;5.130;2023-03-01T05:25:49;0.20;99.90
48728;DHT22;34527;45.618;5.130;2023-03-01T05:28:18;0.20;99.90
48728;DHT22;34527;45.618;5.130;2023-03-01T05:30:46;0.10;99.90
48728;DHT22;34527;45.618;5.130;2023-03-01T05:33:12;0.10;99.90
48728;DHT22;34527;45.618;5.130;2023-03-01T05:35:42;0.10;99.90
48728;DHT22;34527;45.618;5.130;2023-03-01T05:38:09;0.10;99.90
48728;DHT22;34527;45.618;5.130;2023-03-01T05:40:39;0.10;99.90
48728;DHT22;34527;45.618;5.130;2023-03-01T05:43:04;0.20;99.90
48728;DHT22;34527;45.618;5.130;2023-03-01T05:45:31;0.20;99.90
48728;DHT22;34527;45.618;5.130;2023-03-01T05:47:58;0.10;99.90
48728;DHT22;34527;45.618;5.130;2023-03-01T05:50:33;0.10;99.90
48728;DHT22;34527;45.618;5.130;2023-03-01T05:53:01;0.10;99.90
48728;DHT22;34527;45.618;5.130;2023-03-01T05:55:28;0.10;99.90
48728;DHT22;34527;45.618;5.130;2023-03-01T05:57:54;0.10;99.90
48728;DHT22;34527;45.618;5.130;2023-03-01T06:00:21;0.10;99.90
48728;DHT22;34527;45.618;5.130;2023-03-01T06:02:50;0.10;99.90
48728;DHT22;34527;45.618;5.130;2023-03-01T06:05:17;0.00;99.90
48728;DHT22;34527;45.618;5.130;2023-03-01T06:07:43;0.00;99.90
48728;DHT22;34527;45.618;5.130;2023-03-01T06:10:10;0.10;99.90
48728;DHT22;34527;45.618;5.130;2023-03-01T06:12:37;0.10;99.90
48728;DHT22;34527;45.618;5.130;2023-03-01T06:15:04;0.00;99.90
48728;DHT22;34527;45.618;5.130;2023-03-01T06:17:34;0.00;99.90
48728;DHT22;34527;45.618;5.130;2023-03-01T06:20:18;0.00;99.90
48728;DHT22;34527;45.618;5.130;2023-03-01T06:22:45;0.00;99.90
48728;DHT22;34527;45.618;5.130;2023-03-01T06:25:14;0.00;99.90
48728;DHT22;34527;45.618;5.130;2023-03-01T06:27:40;0.10;99.90
48728;DHT22;34527;45.618;5.130;2023-03-01T06:30:07;0.10;99.90
48728;DHT22;34527;45.618;5.130;2023-03-01T06:32:33;0.10;99.90
48728;DHT22;34527;45.618;5.130;2023-03-01T06:34:59;0.00;99.90
48728;DHT22;34527;45.618;5.130;2023-03-01T06:37:25;0.00;99.90
48728;DHT22;34527;45.618;5.130;2023-03-01T06:39:51;0.00;99.90
48728;DHT22;34527;45.618;5.130;2023-03-01T06:42:17;0.00;99.90
48728;DHT22;34527;45.618;5.130;2023-03-01T06:44:43;0.00;99.90
48728;DHT22;34527;45.618;5.130;2023-03-01T06:47:09;0.10;99.90
48728;DHT22;34527;45.618;5.130;2023-03-01T06:49:34;0.10;99.90
48728;DHT22;34527;45.618;5.130;2023-03-01T06:52:00;0.00;99.90
48728;DHT22;34527;45.618;5.130;2023-03-01T06:54:25;0.10;99.90
48728;DHT22;34527;45.618;5.130;2023-03-01T06:56:51;0.00;99.90
48728;DHT22;34527;45.618;5.130;2023-03-01T06:59:17;0.10;99.90
48728;DHT22;34527;45.618;5.130;2023-03-01T07:01:43;0.10;99.90
48728;DHT22;34527;45.618;5.130;2023-03-01T07:04:09;0.10;99.90
48728;DHT22;34527;45.618;5.130;2023-03-01T07:06:35;0.00;99.90
48728;DHT22;34527;45.618;5.130;2023-03-01T07:09:00;0.10;99.90
48728;DHT22;34527;45.618;5.130;2023-03-01T07:11:26;0.00;99.90
48728;DHT22;34527;45.618;5.130;2023-03-01T07:13:52;0.00;99.90
48728;DHT22;34527;45.618;5.130;2023-03-01T07:16:18;0.00;99.90
48728;DHT22;34527;45.618;5.130;2023-03-01T07:18:44;0.00;99.90
48728;DHT22;34527;45.618;5.130;2023-03-01T07:21:12;0.00;99.90
48728;DHT22;34527;45.618;5.130;2023-03-01T07:23:38;0.10;99.90
48728;DHT22;34527;45.618;5.130;2023-03-01T07:26:04;0.10;99.90
48728;DHT22;34527;45.618;5.130;2023-03-01T07:28:30;0.10;99.90
48728;DHT22;34527;45.618;5.130;2023-03-01T07:31:01;0.20;99.90
48728;DHT22;34527;45.618;5.130;2023-03-01T07:33:26;0.10;99.90
48728;DHT22;34527;45.618;5.130;2023-03-01T07:36:00;0.10;99.90
48728;DHT22;34527;45.618;5.130;2023-03-01T07:38:27;0.20;99.90
48728;DHT22;34527;45.618;5.130;2023-03-01T07:40:53;0.20;99.90
48728;DHT22;34527;45.618;5.130;2023-03-01T07:43:19;0.20;99.90
48728;DHT22;34527;45.618;5.130;2023-03-01T07:45:46;0.20;99.90
48728;DHT22;34527;45.618;5.130;2023-03-01T07:48:11;0.10;99.90
48728;DHT22;34527;45.618;5.130;2023-03-01T07:50:37;0.20;99.90
48728;DHT22;34527;45.618;5.130;2023-03-01T07:53:02;0.30;99.90
48728;DHT22;34527;45.618;5.130;2023-03-01T07:55:28;0.40;99.90
48728;DHT22;34527;45.618;5.130;2023-03-01T07:57:54;0.30;99.90
48728;DHT22;34527;45.618;5.130;2023-03-01T08:00:19;0.20;99.90
48728;DHT22;34527;45.618;5.130;2023-03-01T08:02:45;0.30;99.90
48728;DHT22;34527;45.618;5.130;2023-03-01T08:05:11;0.30;99.90
48728;DHT22;34527;45.618;5.130;2023-03-01T08:07:37;0.20;99.90
48728;DHT22;34527;45.618;5.130;2023-03-01T08:10:03;0.20;99.90
48728;DHT22;34527;45.618;5.130;2023-03-01T08:12:28;0.30;99.90
48728;DHT22;34527;45.618;5.130;2023-03-01T08:14:55;0.30;99.90
48728;DHT22;34527;45.618;5.130;2023-03-01T08:17:22;0.30;99.90
48728;DHT22;34527;45.618;5.130;2023-03-01T08:19:47;0.30;99.90
48728;DHT22;34527;45.618;5.130;2023-03-01T08:22:13;0.40;99.90
48728;DHT22;34527;45.618;5.130;2023-03-01T08:24:39;0.40;99.90
48728;DHT22;34527;45.618;5.130;2023-03-01T08:27:04;0.40;99.90
48728;DHT22;34527;45.618;5.130;2023-03-01T08:29:31;0.40;99.90
48728;DHT22;34527;45.618;5.130;2023-03-01T08:31:57;0.40;99.90
48728;DHT22;34527;45.618;5.130;2023-03-01T08:34:22;0.50;99.90
48728;DHT22;34527;45.618;5.130;2023-03-01T08:36:48;0.60;99.90
48728;DHT22;34527;45.618;5.130;2023-03-01T08:39:17;0.60;99.90
48728;DHT22;34527;45.618;5.130;2023-03-01T08:41:43;0.70;99.90
48728;DHT22;34527;45.618;5.130;2023-03-01T08:44:10;0.70;99.90
48728;DHT22;34527;45.618;5.130;2023-03-01T08:46:38;0.70;99.90
48728;DHT22;34527;45.618;5.130;2023-03-01T08:49:11;0.70;99.90
48728;DHT22;34527;45.618;5.130;2023-03-01T08:51:36;0.70;99.90
48728;DHT22;34527;45.618;5.130;2023-03-01T08:54:07;0.70;99.90
48728;DHT22;34527;45.618;5.130;2023-03-01T08:56:33;0.80;99.90
48728;DHT22;34527;45.618;5.130;2023-03-01T08:58:59;0.90;99.90
48728;DHT22;34527;45.618;5.130;2023-03-01T09:01:25;0.70;99.90
48728;DHT22;34527;45.618;5.130;2023-03-01T09:03:51;0.80;99.90
48728;DHT22;34527;45.618;5.130;2023-03-01T09:06:17;0.90;99.90
48728;DHT22;34527;45.618;5.130;2023-03-01T09:08:45;0.90;99.90
48728;DHT22;34527;45.618;5.130;2023-03-01T09:11:13;0.80;99.90
48728;DHT22;34527;45.618;5.130;2023-03-01T09:13:40;0.90;99.90
48728;DHT22;34527;45.618;5.130;2023-03-01T09:16:07;0.90;99.90
48728;DHT22;34527;45.618;5.130;2023-03-01T09:18:34;0.90;99.90
48728;DHT22;34527;45.618;5.130;2023-03-01T09:21:08;1.00;99.90
48728;DHT22;34527;45.618;5.130;2023-03-01T09:23:35;1.00;99.90
48728;DHT22;34527;45.618;5.130;2023-03-01T09:26:03;1.00;99.90
48728;DHT22;34527;45.618;5.130;2023-03-01T09:28:28;1.00;99.90
48728;DHT22;34527;45.618;5.130;2023-03-01T09:31:00;1.10;99.90
48728;DHT22;34527;45.618;5.130;2023-03-01T09:33:28;1.10;99.90
48728;DHT22;34527;45.618;5.130;2023-03-01T09:36:04;1.10;99.90
48728;DHT22;34527;45.618;5.130;2023-03-01T09:38:31;1.10;99.90
48728;DHT22;34527;45.618;5.130;2023-03-01T09:40:56;1.20;99.90
48728;DHT22;34527;45.618;5.130;2023-03-01T09:43:41;1.20;99.90
48728;DHT22;34527;45.618;5.130;2023-03-01T09:46:10;1.30;99.90
48728;DHT22;34527;45.618;5.130;2023-03-01T09:48:54;1.20;99.90
48728;DHT22;34527;45.618;5.130;2023-03-01T09:51:30;1.40;99.90
48728;DHT22;34527;45.618;5.130;2023-03-01T09:53:56;1.30;99.90
48728;DHT22;34527;45.618;5.130;2023-03-01T10:04:48;1.50;99.90
48728;DHT22;34527;45.618;5.130;2023-03-01T10:09:43;1.50;99.90
48728;DHT22;34527;45.618;5.130;2023-03-01T10:12:24;1.60;99.90
48728;DHT22;34527;45.618;5.130;2023-03-01T10:15:00;1.50;99.90
48728;DHT22;34527;45.618;5.130;2023-03-01T10:17:35;1.70;99.90
48728;DHT22;34527;45.618;5.130;2023-03-01T10:22:45;1.70;99.90
48728;DHT22;34527;45.618;5.130;2023-03-01T10:28:16;1.70;99.90
48728;DHT22;34527;45.618;5.130;2023-03-01T10:30:42;1.60;99.90
48728;DHT22;34527;45.618;5.130;2023-03-01T10:33:23;1.70;99.90
48728;DHT22;34527;45.618;5.130;2023-03-01T10:35:50;1.80;99.90
48728;DHT22;34527;45.618;5.130;2023-03-01T10:38:17;1.90;99.90
48728;DHT22;34527;45.618;5.130;2023-03-01T10:41:04;1.90;99.90
48728;DHT22;34527;45.618;5.130;2023-03-01T10:43:49;2.00;99.90
48728;DHT22;34527;45.618;5.130;2023-03-01T10:46:26;2.00;99.90
48728;DHT22;34527;45.618;5.130;2023-03-01T10:51:43;2.20;99.90
48728;DHT22;34527;45.618;5.130;2023-03-01T10:54:19;2.20;99.90
48728;DHT22;34527;45.618;5.130;2023-03-01T10:56:50;2.10;99.90
48728;DHT22;34527;45.618;5.130;2023-03-01T10:59:35;2.10;99.90
48728;DHT22;34527;45.618;5.130;2023-03-01T11:02:17;2.20;99.90
48728;DHT22;34527;45.618;5.130;2023-03-01T11:07:56;2.40;99.90
48728;DHT22;34527;45.618;5.130;2023-03-01T11:10:27;2.40;99.90
48728;DHT22;34527;45.618;5.130;2023-03-01T11:13:05;2.50;99.90
48728;DHT22;34527;45.618;5.130;2023-03-01T11:15:31;2.40;99.90
48728;DHT22;34527;45.618;5.130;2023-03-01T11:17:57;2.40;99.90
48728;DHT22;34527;45.618;5.130;2023-03-01T11:20:29;2.50;99.90
48728;DHT22;34527;45.618;5.130;2023-03-01T11:23:09;2.60;99.90
48728;DHT22;34527;45.618;5.130;2023-03-01T11:25:37;2.70;99.90
48728;DHT22;34527;45.618;5.130;2023-03-01T11:28:09;2.70;99.90
48728;DHT22;34527;45.618;5.130;2023-03-01T11:30:51;2.70;99.90
48728;DHT22;34527;45.618;5.130;2023-03-01T11:36:00;2.60;99.90
48728;DHT22;34527;45.618;5.130;2023-03-01T11:38:29;2.80;99.90
48728;DHT22;34527;45.618;5.130;2023-03-01T11:54:39;2.90;99.90
48728;DHT22;34527;45.618;5.130;2023-03-01T11:57:55;2.90;99.90
48728;DHT22;34527;45.618;5.130;2023-03-01T12:06:41;3.10;99.90
48728;DHT22;34527;45.618;5.130;2023-03-01T12:17:47;3.10;99.90
48728;DHT22;34527;45.618;5.130;2023-03-01T12:26:11;3.60;99.90
48728;DHT22;34527;45.618;5.130;2023-03-01T12:29:07;3.50;99.90
48728;DHT22;34527;45.618;5.130;2023-03-01T12:50:28;3.40;99.90
48728;DHT22;34527;45.618;5.130;2023-03-01T12:52:57;3.40;99.90
48728;DHT22;34527;45.618;5.130;2023-03-01T12:55:38;3.40;99.90
48728;DHT22;34527;45.618;5.130;2023-03-01T12:58:17;3.50;99.90
48728;DHT22;34527;45.618;5.130;2023-03-01T13:06:25;3.60;99.90
48728;DHT22;34527;45.618;5.130;2023-03-01T13:11:47;3.60;99.90
48728;DHT22;34527;45.618;5.130;2023-03-01T13:16:49;3.70;99.90
48728;DHT22;34527;45.618;5.130;2023-03-01T13:19:23;3.70;99.90
48728;DHT22;34527;45.618;5.130;2023-03-01T13:21:49;3.80;99.90
48728;DHT22;34527;45.618;5.130;2023-03-01T13:32:30;3.80;99.90
48728;DHT22;34527;45.618;5.130;2023-03-01T13:35:02;3.80;99.90
48728;DHT22;34527;45.618;5.130;2023-03-01T13:37:37;3.80;99.90
48728;DHT22;34527;45.618;5.130;2023-03-01T13:42:58;3.90;99.90
48728;DHT22;34527;45.618;5.130;2023-03-01T13:45:38;4.00;99.90
48728;DHT22;34527;45.618;5.130;2023-03-01T13:48:11;3.90;99.90
48728;DHT22;34527;45.618;5.130;2023-03-01T13:50:50;3.90;99.90
48728;DHT22;34527;45.618;5.130;2023-03-01T13:53:19;3.90;99.90
48728;DHT22;34527;45.618;5.130;2023-03-01T13:55:54;3.90;99.90
48728;DHT22;34527;45.618;5.130;2023-03-01T14:00:46;4.00;99.90
48728;DHT22;34527;45.618;5.130;2023-03-01T14:03:19;4.00;99.90
48728;DHT22;34527;45.618;5.130;2023-03-01T14:06:12;3.90;99.90
48728;DHT22;34527;45.618;5.130;2023-03-01T14:08:38;4.00;99.90
48728;DHT22;34527;45.618;5.130;2023-03-01T14:14:48;3.90;99.90
48728;DHT22;34527;45.618;5.130;2023-03-01T14:20:40;3.90;99.90
48728;DHT22;34527;45.618;5.130;2023-03-01T14:23:15;4.00;99.90
48728;DHT22;34527;45.618;5.130;2023-03-01T14:25:48;4.10;99.90
48728;DHT22;34527;45.618;5.130;2023-03-01T14:28:20;4.00;99.90
48728;DHT22;34527;45.618;5.130;2023-03-01T14:30:51;4.00;99.90
48728;DHT22;34527;45.618;5.130;2023-03-01T14:33:29;4.00;99.90
48728;DHT22;34527;45.618;5.130;2023-03-01T14:36:09;4.00;99.90
48728;DHT22;34527;45.618;5.130;2023-03-01T14:41:12;4.00;99.90
48728;DHT22;34527;45.618;5.130;2023-03-01T14:43:45;4.10;99.90
48728;DHT22;34527;45.618;5.130;2023-03-01T14:46:43;4.10;99.90
48728;DHT22;34527;45.618;5.130;2023-03-01T14:49:16;4.00;99.90
48728;DHT22;34527;45.618;5.130;2023-03-01T14:51:49;4.10;99.90
48728;DHT22;34527;45.618;5.130;2023-03-01T14:56:51;4.10;99.90
48728;DHT22;34527;45.618;5.130;2023-03-01T14:59:21;4.10;99.90
48728;DHT22;34527;45.618;5.130;2023-03-01T15:01:48;4.20;99.90
48728;DHT22;34527;45.618;5.130;2023-03-01T15:04:14;4.10;99.90
48728;DHT22;34527;45.618;5.130;2023-03-01T15:06:41;4.10;99.90
48728;DHT22;34527;45.618;5.130;2023-03-01T15:09:11;4.10;99.90
48728;DHT22;34527;45.618;5.130;2023-03-01T15:11:37;4.20;99.90
48728;DHT22;34527;45.618;5.130;2023-03-01T15:14:36;4.20;99.90
48728;DHT22;34527;45.618;5.130;2023-03-01T15:17:03;4.20;99.90
48728;DHT22;34527;45.618;5.130;2023-03-01T15:19:29;4.20;99.90
48728;DHT22;34527;45.618;5.130;2023-03-01T15:21:55;4.10;99.90
48728;DHT22;34527;45.618;5.130;2023-03-01T15:24:25;4.10;99.90
48728;DHT22;34527;45.618;5.130;2023-03-01T15:27:00;4.20;99.90
48728;DHT22;34527;45.618;5.130;2023-03-01T15:29:33;4.20;99.90
48728;DHT22;34527;45.618;5.130;2023-03-01T15:32:03;4.20;99.90
48728;DHT22;34527;45.618;5.130;2023-03-01T15:34:30;4.20;99.90
48728;DHT22;34527;45.618;5.130;2023-03-01T15:36:58;4.20;99.90
48728;DHT22;34527;45.618;5.130;2023-03-01T15:47:40;4.20;99.90
48728;DHT22;34527;45.618;5.130;2023-03-01T15:50:27;4.30;99.90
48728;DHT22;34527;45.618;5.130;2023-03-01T15:52:54;4.30;99.90
48728;DHT22;34527;45.618;5.130;2023-03-01T15:55:23;4.30;99.90
48728;DHT22;34527;45.618;5.130;2023-03-01T15:57:50;4.30;99.90
48728;DHT22;34527;45.618;5.130;2023-03-01T16:00:24;4.30;99.90
48728;DHT22;34527;45.618;5.130;2023-03-01T16:02:49;4.30;99.90
48728;DHT22;34527;45.618;5.130;2023-03-01T16:05:20;4.30;99.90
48728;DHT22;34527;45.618;5.130;2023-03-01T16:07:47;4.30;99.90
48728;DHT22;34527;45.618;5.130;2023-03-01T16:10:12;4.40;99.90
48728;DHT22;34527;45.618;5.130;2023-03-01T16:12:38;4.40;99.90
48728;DHT22;34527;45.618;5.130;2023-03-01T16:15:08;4.30;99.90
48728;DHT22;34527;45.618;5.130;2023-03-01T16:17:38;4.30;99.90
48728;DHT22;34527;45.618;5.130;2023-03-01T16:20:04;4.30;99.90
48728;DHT22;34527;45.618;5.130;2023-03-01T16:22:30;4.30;99.90
48728;DHT22;34527;45.618;5.130;2023-03-01T16:24:56;4.30;99.90
48728;DHT22;34527;45.618;5.130;2023-03-01T16:27:21;4.30;99.90
48728;DHT22;34527;45.618;5.130;2023-03-01T16:29:47;4.30;99.90
48728;DHT22;34527;45.618;5.130;2023-03-01T16:32:13;4.30;99.90
48728;DHT22;34527;45.618;5.130;2023-03-01T16:34:39;4.30;99.90
48728;DHT22;34527;45.618;5.130;2023-03-01T16:37:04;4.30;99.90
48728;DHT22;34527;45.618;5.130;2023-03-01T16:39:30;4.30;99.90
48728;DHT22;34527;45.618;5.130;2023-03-01T16:41:55;4.30;99.90
48728;DHT22;34527;45.618;5.130;2023-03-01T16:44:21;4.30;99.90
48728;DHT22;34527;45.618;5.130;2023-03-01T16:46:47;4.20;99.90
48728;DHT22;34527;45.618;5.130;2023-03-01T16:49:13;4.20;99.90
48728;DHT22;34527;45.618;5.130;2023-03-01T16:51:38;4.30;99.90
48728;DHT22;34527;45.618;5.130;2023-03-01T16:54:04;4.30;99.90
48728;DHT22;34527;45.618;5.130;2023-03-01T16:56:30;4.30;99.90
48728;DHT22;34527;45.618;5.130;2023-03-01T16:58:57;4.30;99.90
48728;DHT22;34527;45.618;5.130;2023-03-01T17:01:23;4.30;99.90
48728;DHT22;34527;45.618;5.130;2023-03-01T17:03:51;4.30;99.90
48728;DHT22;34527;45.618;5.130;2023-03-01T17:06:20;4.20;99.90
48728;DHT22;34527;45.618;5.130;2023-03-01T17:08:47;4.30;99.90
48728;DHT22;34527;45.618;5.130;2023-03-01T17:11:15;4.20;99.90
48728;DHT22;34527;45.618;5.130;2023-03-01T17:13:42;4.20;99.90
48728;DHT22;34527;45.618;5.130;2023-03-01T17:16:10;4.30;99.90
48728;DHT22;34527;45.618;5.130;2023-03-01T17:18:37;4.20;99.90
48728;DHT22;34527;45.618;5.130;2023-03-01T17:21:03;4.20;99.90
48728;DHT22;34527;45.618;5.130;2023-03-01T17:23:30;4.30;99.90
48728;DHT22;34527;45.618;5.130;2023-03-01T17:25:56;4.20;99.90
48728;DHT22;34527;45.618;5.130;2023-03-01T17:28:23;4.20;99.90
48728;DHT22;34527;45.618;5.130;2023-03-01T17:30:49;4.20;99.90
48728;DHT22;34527;45.618;5.130;2023-03-01T17:33:15;4.20;99.90
48728;DHT22;34527;45.618;5.130;2023-03-01T17:35:41;4.20;99.90
48728;DHT22;34527;45.618;5.130;2023-03-01T17:38:07;4.20;99.90
48728;DHT22;34527;45.618;5.130;2023-03-01T17:40:32;4.20;99.90
48728;DHT22;34527;45.618;5.130;2023-03-01T17:43:00;4.20;99.90
48728;DHT22;34527;45.618;5.130;2023-03-01T17:45:26;4.30;99.90
48728;DHT22;34527;45.618;5.130;2023-03-01T17:47:51;4.20;99.90
48728;DHT22;34527;45.618;5.130;2023-03-01T17:50:17;4.30;99.90
48728;DHT22;34527;45.618;5.130;2023-03-01T17:52:43;4.30;99.90
48728;DHT22;34527;45.618;5.130;2023-03-01T17:55:09;4.30;99.90
48728;DHT22;34527;45.618;5.130;2023-03-01T17:57:38;4.30;99.90
48728;DHT22;34527;45.618;5.130;2023-03-01T18:00:05;4.30;99.90
48728;DHT22;34527;45.618;5.130;2023-03-01T18:02:31;4.30;99.90
48728;DHT22;34527;45.618;5.130;2023-03-01T18:04:57;4.30;99.90